Latest Weather Observations for Centre Island

IDD60801

Issued at 3:01 pm CST Sunday 20 August 2017 (issued every 30 minutes, with the page automatically refreshed every 10 minutes)

About weather observations | Map of weather stations | Latest weather observations for NT | Other Formats
Station Details ID: 014703 Name: CENTRE ISLAND Lat: -15.74 Lon: 136.82 Height: 12.2 m
Data from the previous 72 hours. | See also: Recent months at Centre Island
Date/Time
CST
Temp
°C
App
Temp
°C
Dew
Point
°C
Rel
Hum
%
Delta-T
°C
Wind Press
QNH
hPa
Press
MSL
hPa
Rain since
9am
mm
Dir  Spd
km/h
Gust
km/h
Spd
kts
Gust
kts
20/03:00pm 28.7 22.5 9.9 31 10.5 E 33 41 18 22 1012.7 1012.7 0.0
20/02:30pm 29.6 22.9 8.1 26 11.8 E 33 39 18 21 1013.0 1013.0 0.0
20/02:00pm 29.9 24.3 8.9 27 11.7 E 28 35 15 19 1013.5 1013.5 0.0
20/01:30pm 28.9 22.4 8.0 27 11.4 E 32 39 17 21 1014.2 1014.2 0.0
20/01:00pm 28.0 21.6 9.3 31 10.3 ESE 33 39 18 21 1014.9 1014.9 0.0
20/12:30pm 27.3 19.3 10.5 35 9.4 ESE 43 50 23 27 1015.3 1015.3 0.0
20/12:00pm 26.3 17.9 11.2 38 8.5 ESE 46 54 25 29 1015.8 1015.8 0.0
20/11:30am 26.2 17.9 13.7 46 7.4 ESE 50 57 27 31 1016.1 1016.1 0.0
20/11:00am 25.7 16.1 10.7 39 8.4 ESE 52 61 28 33 1016.5 1016.5 0.0
20/10:30am 25.5 14.7 9.3 36 8.8 ESE 56 65 30 35 1016.8 1016.8 0.0
20/10:00am 25.2 13.6 8.2 34 9.1 ESE 59 69 32 37 1016.9 1016.9 0.0
20/09:30am 25.1 13.7 7.7 33 9.2 ESE 57 67 31 36 1016.9 1016.9 0.0
20/09:00am 25.2 14.3 7.3 32 9.4 ESE 54 67 29 36 1016.4 1016.4 0.0
20/08:30am 25.0 14.2 6.2 30 9.7 SE 52 59 28 32 1015.8 1015.8 0.0
20/08:00am 24.6 14.0 6.8 32 9.3 SE 52 61 28 33 1015.8 1015.8 0.0
20/07:30am 24.2 13.3 5.5 30 9.5 SE 52 69 28 37 1015.6 1015.6 0.0
20/07:00am 24.0 13.2 7.6 35 8.6 SE 54 63 29 34 1015.4 1015.4 0.0
20/06:30am 24.1 13.2 3.4 26 10.1 SE 50 59 27 32 1015.2 1015.2 0.0
20/06:00am 24.3 15.0 7.4 34 8.9 SE 46 54 25 29 1014.7 1014.7 0.0
20/05:30am 24.5 15.0 8.5 36 8.6 SE 48 59 26 32 1014.3 1014.3 0.0
20/05:00am 24.7 15.6 9.8 39 8.2 SE 48 57 26 31 1013.9 1013.9 0.0
20/04:30am 24.7 16.2 9.4 38 8.3 SE 44 54 24 29 1013.8 1013.8 0.0
20/04:00am 24.7 17.2 12.0 45 7.2 SE 43 54 23 29 1013.8 1013.8 0.0
20/03:30am 24.8 18.1 13.4 49 6.7 SE 41 46 22 25 1013.9 1013.9 0.0
20/03:00am 24.9 18.6 14.7 53 6.1 SE 41 46 22 25 1013.9 1013.9 0.0
20/02:30am 25.5 19.9 15.5 54 6.1 ESE 39 46 21 25 1013.8 1013.8 0.0
20/02:00am 24.0 22.5 18.6 72 3.4 SE 24 30 13 16 1014.1 1014.1 0.0
20/01:30am 23.5 23.4 20.0 81 2.3 SE 20 24 11 13 1014.4 1014.4 0.0
20/01:00am 23.7 24.1 21.0 85 1.8 SE 20 22 11 12 1014.5 1014.5 0.0
20/12:30am 23.9 24.8 21.6 87 1.5 SSE 19 20 10 11 1014.7 1014.7 0.0
20/12:00am 24.0 25.0 21.7 87 1.5 SSE 19 20 10 11 1014.8 1014.8 0.0
 
Date/Time
CST
Temp
°C
App
Temp
°C
Dew
Point
°C
Rel
Hum
%
Delta-T
°C
Wind Press
QNH
hPa
Press
MSL
hPa
Rain since
9am
mm
Dir  Spd
km/h
Gust
km/h
Spd
kts
Gust
kts
19/11:30pm 24.5 25.5 21.8 85 1.8 SE 19 20 10 11 1015.0 1015.0 0.0
19/11:00pm 24.3 25.6 20.8 81 2.3 E 15 20 8 11 1014.9 1014.9 0.0
19/10:30pm 24.3 26.0 21.0 82 2.2 ENE 13 17 7 9 1015.0 1015.0 0.0
19/10:00pm 24.5 25.6 21.2 82 2.2 ENE 17 20 9 11 1015.2 1015.2 0.0
19/09:30pm 24.5 26.0 21.2 82 2.2 ENE 15 20 8 11 1015.1 1015.1 0.0
19/09:00pm 24.7 25.3 21.4 82 2.2 ENE 20 24 11 13 1015.1 1015.1 0.0
19/08:30pm 24.8 25.6 21.7 83 2.1 ENE 20 26 11 14 1014.9 1014.9 0.0
19/08:00pm 24.9 24.9 21.6 82 2.2 E 24 28 13 15 1015.0 1015.0 0.0
19/07:30pm 25.1 25.0 21.4 80 2.4 E 24 30 13 16 1014.7 1014.7 0.0
19/07:00pm 25.4 25.3 21.5 79 2.6 E 24 30 13 16 1014.5 1014.5 0.0
19/06:30pm 25.6 24.6 21.3 77 2.8 E 28 33 15 18 1014.1 1014.1 0.0
19/06:00pm 26.1 24.9 20.9 73 3.4 E 28 33 15 18 1013.7 1013.7 0.0
19/05:30pm 26.9 25.6 20.7 69 4.1 E 28 33 15 18 1013.4 1013.4 0.0
19/05:00pm 27.4 24.9 20.2 65 4.7 E 33 41 18 22 1013.1 1013.1 0.0
19/04:30pm 28.1 25.7 19.9 61 5.4 E 32 39 17 21 1012.9 1012.9 0.0
19/04:00pm 29.0 25.5 18.7 53 6.6 E 35 43 19 23 1012.8 1012.8 0.0
19/03:30pm 29.5 24.9 18.0 50 7.3 E 39 46 21 25 1012.9 1012.9 0.0
19/03:00pm 29.9 26.4 18.0 48 7.6 ESE 33 41 18 22 1013.1 1013.1 0.0
19/02:30pm 30.1 25.4 16.9 45 8.3 E 37 46 20 25 1013.3 1013.3 0.0
19/02:00pm 30.4 25.1 16.4 43 8.8 E 39 46 21 25 1013.6 1013.6 0.0
19/01:30pm 30.2 24.5 15.1 40 9.3 E 39 48 21 26 1014.1 1014.1 0.0
19/01:00pm 29.7 22.7 14.3 39 9.3 ESE 44 52 24 28 1014.4 1014.4 0.0
19/12:30pm 29.3 21.9 14.3 40 9.0 ESE 46 56 25 30 1015.0 1015.0 0.0
19/12:00pm 29.3 23.4 15.8 44 8.3 ESE 41 50 22 27 1015.5 1015.5 0.0
19/11:30am 29.0 23.3 15.2 43 8.4 ESE 39 50 21 27 1016.0 1016.0 0.0
19/11:00am 28.4 22.7 14.3 42 8.5 ESE 37 44 20 24 1016.4 1016.4 0.0
19/10:30am 28.0 21.7 14.6 44 8.1 ESE 41 46 22 25 1016.6 1016.6 0.0
19/10:00am 27.8 21.6 13.7 42 8.4 ESE 39 46 21 25 1016.7 1016.7 0.0
19/09:30am 27.2 18.7 12.0 38 8.8 ESE 48 57 26 31 1016.5 1016.5 0.0
19/09:00am 26.7 20.5 13.8 45 7.6 ESE 39 50 21 27 1016.2 1016.2 0.0
19/08:30am 26.1 18.6 12.2 42 8.0 ESE 43 50 23 27 1016.0 1016.0 0.0
19/08:00am 25.8 19.4 13.3 46 7.3 SE 39 44 21 24 1016.0 1016.0 0.0
19/07:30am 25.4 19.5 14.8 52 6.3 SE 39 46 21 25 1015.6 1015.6 0.0
19/07:00am 25.4 18.1 14.5 51 6.5 SE 46 56 25 30 1015.1 1015.1 0.0
19/06:30am 24.8 18.9 16.8 61 4.9 SE 43 52 23 28 1014.8 1014.8 0.0
19/06:00am 23.8 19.6 16.3 63 4.6 SE 33 46 18 25 1014.5 1014.5 0.0
19/05:53am 22.5 20.9 17.4 73 3.1 SSE 22 37 12 20 1014.5 1014.5 0.0
19/05:30am 22.4 24.6 21.9 97 0.3 S 13 17 7 9 1014.3 1014.3 0.0
19/05:00am 22.6 24.6 22.3 98 0.2 S 15 19 8 10 1014.1 1014.1 0.0
19/04:30am 23.2 25.6 22.9 98 0.2 SSE 15 19 8 10 1013.8 1013.8 0.0
19/04:00am 23.6 25.5 22.8 95 0.5 SSE 17 20 9 11 1013.8 1013.8 0.0
19/03:30am 23.7 25.7 22.9 95 0.5 SE 17 20 9 11 1013.8 1013.8 0.0
19/03:00am 23.1 26.8 22.3 95 0.5 E 6 9 3 5 1013.5 1013.5 0.0
19/02:30am 23.3 27.2 22.5 95 0.5 E 6 7 3 4 1013.8 1013.8 0.0
19/02:00am 23.1 26.6 22.1 94 0.7 E 7 9 4 5 1014.0 1014.0 0.0
19/01:30am 23.0 26.5 21.8 93 0.8 E 6 7 3 4 1014.0 1014.0 0.0
19/01:00am 23.0 26.4 21.6 92 0.9 E 6 7 3 4 1014.1 1014.1 0.0
19/12:30am 23.4 26.4 22.0 92 0.9 E 9 11 5 6 1014.4 1014.4 0.0
19/12:00am 23.9 26.4 22.5 92 0.9 NE 13 15 7 8 1014.7 1014.7 0.0
 
Date/Time
CST
Temp
°C
App
Temp
°C
Dew
Point
°C
Rel
Hum
%
Delta-T
°C
Wind Press
QNH
hPa
Press
MSL
hPa
Rain since
9am
mm
Dir  Spd
km/h
Gust
km/h
Spd
kts
Gust
kts
18/11:30pm 23.8 26.7 22.4 92 0.9 NE 11 13 6 7 1014.6 1014.6 0.0
18/11:00pm 23.4 26.9 21.8 91 1.1 NE 6 9 3 5 1014.5 1014.5 0.0
18/10:30pm 23.3 26.5 21.6 90 1.1 NNE 7 9 4 5 1014.6 1014.6 0.0
18/10:00pm 23.3 26.4 21.0 87 1.5 NNW 6 7 3 4 1014.4 1014.4 0.0
18/09:30pm 23.6 26.7 21.1 86 1.6 N 6 6 3 3 1014.2 1014.2 0.0
18/09:00pm 23.9 26.8 21.0 84 1.9 N 7 9 4 5 1014.1 1014.1 0.0
18/08:30pm 24.3 27.4 21.4 84 1.9 N 7 11 4 6 1014.0 1014.0 0.0
18/08:00pm 24.5 27.5 21.2 82 2.2 N 7 9 4 5 1013.8 1013.8 0.0
18/07:30pm 24.9 27.6 21.4 81 2.3 N 9 13 5 7 1013.4 1013.4 0.0
18/07:00pm 25.2 27.8 21.9 82 2.2 N 11 15 6 8 1013.2 1013.2 0.0
18/06:30pm 25.3 27.3 21.6 80 2.5 N 13 15 7 8 1013.0 1013.0 0.0
18/06:00pm 26.0 28.2 21.9 78 2.7 NNE 13 19 7 10 1012.8 1012.8 0.0
18/05:30pm 27.0 28.3 21.7 73 3.5 NNE 17 20 9 11 1012.9 1012.9 0.0
18/05:00pm 27.7 29.1 21.0 67 4.4 NNE 15 20 8 11 1012.8 1012.8 0.0
18/04:30pm 28.1 28.8 20.4 63 5.1 NNE 17 22 9 12 1012.7 1012.7 0.0
18/04:00pm 28.8 29.3 20.8 62 5.3 NNE 19 26 10 14 1012.6 1012.6 0.0
18/03:30pm 29.3 29.6 20.5 59 5.8 NNE 19 24 10 13 1012.8 1012.8 0.0
18/03:00pm 29.7 30.2 20.8 58 5.9 NNE 19 26 10 14 1013.0 1013.0 0.0
18/02:30pm 30.4 30.0 18.8 50 7.5 NNE 19 24 10 13 1013.2 1013.2 0.0
18/02:00pm 29.4 29.8 19.1 54 6.7 NE 15 20 8 11 1013.6 1013.6 0.0
18/01:30pm 31.0 31.5 18.4 47 8.1 NNE 13 19 7 10 1013.7 1013.7 0.0
18/01:00pm 30.8 31.7 18.5 47 7.9 NNE 11 15 6 8 1013.9 1013.9 0.0
18/12:30pm 30.2 30.7 18.3 49 7.6 NNE 13 19 7 10 1014.2 1014.2 0.0
18/12:00pm 28.5 31.0 21.0 64 5.0 NE 9 11 5 6 1014.7 1014.7 0.0
18/11:30am 26.9 29.9 21.2 71 3.8 ENE 7 9 4 5 1015.1 1015.1 0.0
18/11:00am 25.2 27.9 21.3 79 2.6 ESE 9 11 5 6 1015.6 1015.6 0.0
18/10:30am 25.3 28.0 21.4 79 2.6 ESE 9 11 5 6 1015.8 1015.8 0.0
18/10:00am 24.6 27.4 20.9 80 2.4 SE 7 9 4 5 1015.9 1015.9 0.0
18/09:30am 23.3 27.2 21.2 88 1.4 WSW 2 7 1 4 1015.8 1015.8 0.0
18/09:00am 22.4 25.6 21.2 93 0.8 WSW 6 7 3 4 1015.5 1015.5 0.2
18/08:30am 22.4 25.8 21.7 96 0.5 SW 6 11 3 6 1015.3 1015.3 0.2
18/08:00am 22.4 25.7 21.9 97 0.3 SSW 7 9 4 5 1015.0 1015.0 0.2
18/07:30am 22.3 24.9 22.0 98 0.2 SSW 11 13 6 7 1014.6 1014.6 0.2
18/07:00am 22.5 24.9 22.2 98 0.2 WSW 13 15 7 8 1014.1 1014.1 0.2
18/06:30am 22.4 24.7 22.1 98 0.2 WSW 13 15 7 8 1013.8 1013.8 0.2
18/06:00am 22.7 24.7 22.2 97 0.3 WSW 15 19 8 10 1013.3 1013.3 0.2
18/05:30am 22.6 25.9 21.8 95 0.5 WSW 7 11 4 6 1012.8 1012.8 0.0
18/05:00am 22.5 25.9 21.7 95 0.5 W 6 9 3 5 1012.5 1012.5 0.0
18/04:30am 22.5 25.8 21.8 96 0.5 NNW 7 9 4 5 1012.1 1012.1 0.0
18/04:00am 22.2 25.4 21.2 94 0.7 N 6 9 3 5 1012.0 1012.0 0.0
18/03:30am 22.2 26.0 21.0 93 0.8 ENE 2 7 1 4 1012.0 1012.0 0.0
18/03:00am 22.1 25.9 20.2 89 1.2 CALM 0 0 0 0 1012.0 1012.0 0.0
18/02:30am 22.8 25.9 21.1 90 1.1 ENE 6 9 3 5 1012.1 1012.1 0.0
18/02:00am 23.1 25.7 21.2 89 1.2 ENE 9 11 5 6 1012.4 1012.4 0.0
18/01:30am 23.3 26.0 21.4 89 1.3 ENE 9 13 5 7 1012.6 1012.6 0.0
18/01:00am 23.4 26.2 21.5 89 1.3 NE 9 11 5 6 1012.8 1012.8 0.0
18/12:30am 23.6 26.0 21.5 88 1.4 NE 11 15 6 8 1012.8 1012.8 0.0
18/12:00am 23.8 26.3 21.7 88 1.4 NE 11 13 6 7 1013.0 1013.0 0.0
 
Date/Time
CST
Temp
°C
App
Temp
°C
Dew
Point
°C
Rel
Hum
%
Delta-T
°C
Wind Press
QNH
hPa
Press
MSL
hPa
Rain since
9am
mm
Dir  Spd
km/h
Gust
km/h
Spd
kts
Gust
kts
17/11:30pm 23.7 26.1 21.6 88 1.4 NE 11 13 6 7 1013.0 1013.0 0.0
17/11:00pm 23.6 26.4 21.5 88 1.4 NE 9 11 5 6 1013.1 1013.1 0.0
17/10:30pm 23.6 26.3 21.3 87 1.5 NNE 9 11 5 6 1013.1 1013.1 0.0
17/10:00pm 23.8 26.5 21.3 86 1.6 NNE 9 11 5 6 1013.1 1013.1 0.0
17/09:30pm 24.1 26.0 21.4 85 1.8 NNE 13 15 7 8 1013.0 1013.0 0.0
17/09:00pm 24.1 26.8 21.4 85 1.8 NNE 9 13 5 7 1013.0 1013.0 0.0
17/08:30pm 24.2 26.9 21.3 84 1.9 N 9 11 5 6 1012.9 1012.9 0.0
17/08:00pm 24.4 26.2 21.1 82 2.2 NNE 13 15 7 8 1012.7 1012.7 0.0
17/07:30pm 24.7 26.6 21.4 82 2.2 NNE 13 17 7 9 1012.3 1012.3 0.0
17/07:00pm 24.7 26.9 21.2 81 2.3 NNE 11 15 6 8 1012.1 1012.1 0.0
17/06:30pm 25.1 26.8 21.6 81 2.3 NNE 15 20 8 11 1011.8 1011.8 0.0
17/06:00pm 25.5 26.3 21.4 78 2.7 NNE 19 24 10 13 1011.6 1011.6 0.0
17/05:30pm 26.1 26.7 21.3 75 3.2 NE 20 30 11 16 1011.5 1011.5 0.0
17/05:00pm 26.5 26.9 21.7 75 3.2 NNE 22 28 12 15 1011.5 1011.5 0.0
17/04:30pm 27.4 28.5 22.4 74 3.4 NNE 20 26 11 14 1011.3 1011.3 0.0
17/04:00pm 27.3 27.3 21.6 71 3.8 NNE 24 33 13 18 1011.2 1011.2 0.0
17/03:30pm 28.2 28.2 21.7 68 4.4 NNE 24 30 13 16 1011.3 1011.3 0.0

Other Formats:

Comma delimited format used in spreadsheet applications
http://www.bom.gov.au/fwo/IDD60801/IDD60801.94248.axf

JavaScript Object Notation format (JSON) in row-major order
http://www.bom.gov.au/fwo/IDD60801/IDD60801.94248.json